createdAt,value
2017-12-27T00:03:52.018Z,8.52
2017-12-27T00:08:30.665Z,8.47
2017-12-27T00:13:10.480Z,8.55
2017-12-27T00:17:48.603Z,8.60
2017-12-27T00:22:28.372Z,8.71
2017-12-27T00:25:04.443Z,8.69
2017-12-27T00:29:41.891Z,8.68
2017-12-27T00:32:16.027Z,8.52
2017-12-27T00:34:50.326Z,8.67
2017-12-27T00:40:02.161Z,8.96
2017-12-27T00:42:33.014Z,8.92
2017-12-27T00:45:05.987Z,8.89
2017-12-27T00:47:36.997Z,8.90
2017-12-27T00:50:07.272Z,8.87
2017-12-27T00:52:37.711Z,8.78
2017-12-27T00:55:08.649Z,8.83
2017-12-27T00:57:38.884Z,8.76
2017-12-27T01:00:28.180Z,8.73
2017-12-27T01:02:58.604Z,8.70
2017-12-27T01:05:31.240Z,8.72
2017-12-27T01:08:01.757Z,8.82
2017-12-27T01:10:32.200Z,8.74
2017-12-27T01:13:02.517Z,8.72
2017-12-27T01:15:33.970Z,8.69
2017-12-27T01:18:04.417Z,8.73
2017-12-27T01:20:35.630Z,8.52
2017-12-27T01:23:05.984Z,8.66
2017-12-27T01:25:36.262Z,8.85
2017-12-27T01:28:06.423Z,8.61
2017-12-27T01:30:37.141Z,8.66
2017-12-27T01:33:09.059Z,8.82
2017-12-27T01:35:41.471Z,8.63
2017-12-27T01:38:11.774Z,8.82
2017-12-27T01:40:42.202Z,8.58
2017-12-27T01:43:12.562Z,8.52
2017-12-27T01:45:43.563Z,8.79
2017-12-27T01:48:17.444Z,8.66
2017-12-27T01:50:48.382Z,8.63
2017-12-27T01:53:21.003Z,8.53
2017-12-27T01:55:52.132Z,8.88
2017-12-27T01:58:22.581Z,8.94
2017-12-27T02:00:53.295Z,8.90
2017-12-27T02:03:23.906Z,8.77
2017-12-27T02:06:04.416Z,8.86
2017-12-27T02:08:34.761Z,8.71
2017-12-27T02:11:05.589Z,8.84
2017-12-27T02:13:36.872Z,8.89
2017-12-27T02:16:07.811Z,8.81
2017-12-27T02:18:38.266Z,8.89
2017-12-27T02:21:09.116Z,8.96
2017-12-27T02:23:39.679Z,8.92
2017-12-27T02:26:10.357Z,9.00
2017-12-27T02:28:40.729Z,8.85
2017-12-27T02:31:11.666Z,8.91
2017-12-27T02:33:43.492Z,8.89
2017-12-27T02:36:14.676Z,8.89
2017-12-27T02:38:54.719Z,8.69
2017-12-27T02:41:26.264Z,8.73
2017-12-27T02:43:57.461Z,8.83
2017-12-27T02:46:33.947Z,8.85
2017-12-27T02:49:04.249Z,8.82
2017-12-27T02:51:34.731Z,8.81
2017-12-27T02:54:05.243Z,8.82
2017-12-27T02:56:35.537Z,8.72
2017-12-27T02:59:05.892Z,8.81
2017-12-27T03:01:37.147Z,8.91
2017-12-27T03:04:07.640Z,8.92
2017-12-27T03:06:37.931Z,8.86
2017-12-27T03:09:08.293Z,8.85
2017-12-27T03:11:38.869Z,8.90
2017-12-27T03:14:09.227Z,8.71
2017-12-27T03:16:40.223Z,8.67
2017-12-27T03:19:11.162Z,8.69
2017-12-27T03:21:41.523Z,8.77
2017-12-27T03:24:11.855Z,8.71
2017-12-27T03:26:42.138Z,8.71
2017-12-27T03:29:12.450Z,8.78
2017-12-27T03:31:45.448Z,8.79
2017-12-27T03:34:16.685Z,8.92
2017-12-27T03:36:47.834Z,8.87
2017-12-27T03:39:36.482Z,8.79
2017-12-27T03:42:07.178Z,8.74
2017-12-27T03:44:37.777Z,8.81
2017-12-27T03:47:08.465Z,8.78
2017-12-27T03:49:38.787Z,8.69
2017-12-27T03:52:09.692Z,8.54
2017-12-27T03:54:40.160Z,8.65
2017-12-27T03:57:10.560Z,8.59
2017-12-27T03:59:40.845Z,8.63
2017-12-27T04:02:11.971Z,8.72
2017-12-27T04:04:42.439Z,8.52
2017-12-27T04:07:13.185Z,8.50
2017-12-27T04:09:44.304Z,8.68
2017-12-27T04:12:14.516Z,8.73
2017-12-27T04:14:45.920Z,8.72
2017-12-27T04:17:17.410Z,8.70
2017-12-27T04:19:48.157Z,8.70
2017-12-27T04:22:19.241Z,8.75
2017-12-27T04:24:49.653Z,8.76
2017-12-27T04:27:19.932Z,8.81
2017-12-27T04:29:50.141Z,8.75
2017-12-27T04:32:20.678Z,8.68
2017-12-27T04:34:51.383Z,8.75
2017-12-27T04:37:22.132Z,8.68
2017-12-27T04:39:52.954Z,8.87
2017-12-27T04:42:24.736Z,8.91
2017-12-27T04:44:55.953Z,8.90
2017-12-27T04:47:27.636Z,8.76
2017-12-27T04:49:57.966Z,8.86
2017-12-27T04:52:28.397Z,8.81
2017-12-27T04:55:07.852Z,8.73
2017-12-27T04:57:38.775Z,8.93
2017-12-27T05:00:09.314Z,8.86
2017-12-27T05:02:40.432Z,8.79
2017-12-27T05:05:10.961Z,8.90
2017-12-27T05:07:41.759Z,8.99
2017-12-27T05:10:11.981Z,8.88
2017-12-27T05:12:43.039Z,9.01
2017-12-27T05:15:16.829Z,8.75
2017-12-27T05:17:47.706Z,9.05
2017-12-27T05:20:18.175Z,8.88
2017-12-27T05:22:49.108Z,8.85
2017-12-27T05:25:19.798Z,8.95
2017-12-27T05:27:50.366Z,8.80
2017-12-27T05:30:21.610Z,9.15
2017-12-27T05:32:51.980Z,9.09
2017-12-27T05:35:22.370Z,9.14
2017-12-27T05:37:52.991Z,9.13
2017-12-27T05:40:24.147Z,9.26
2017-12-27T05:42:54.403Z,9.16
2017-12-27T05:45:25.101Z,9.26
2017-12-27T05:47:56.487Z,9.36
2017-12-27T05:50:26.953Z,9.37
2017-12-27T05:52:57.908Z,9.37
2017-12-27T05:55:28.307Z,9.08
2017-12-27T05:57:58.573Z,9.17
2017-12-27T06:00:29.299Z,9.07
2017-12-27T06:02:59.580Z,9.21
2017-12-27T06:05:30.038Z,9.31
2017-12-27T06:08:00.621Z,9.25
2017-12-27T06:10:31.347Z,9.21
2017-12-27T06:13:01.610Z,9.20
2017-12-27T06:15:31.847Z,9.28
2017-12-27T06:18:03.064Z,8.66
2017-12-27T06:20:33.212Z,8.33
2017-12-27T06:23:03.861Z,8.92
2017-12-27T06:25:33.982Z,8.82
2017-12-27T06:28:04.832Z,8.85
2017-12-27T06:30:35.953Z,8.70
2017-12-27T06:33:06.062Z,8.65
2017-12-27T06:35:36.729Z,8.41
2017-12-27T06:38:07.330Z,8.69
2017-12-27T06:40:39.733Z,8.66
2017-12-27T06:43:10.294Z,8.50
2017-12-27T06:45:40.715Z,8.56
2017-12-27T06:48:11.343Z,8.55
2017-12-27T06:50:43.385Z,8.63
2017-12-27T06:53:14.972Z,8.52
2017-12-27T06:55:46.290Z,8.89
2017-12-27T06:58:16.453Z,8.60
2017-12-27T07:00:48.687Z,7.88
2017-12-27T07:03:20.424Z,8.17
2017-12-27T07:05:50.815Z,8.00
2017-12-27T07:08:21.702Z,8.24
2017-12-27T07:10:52.098Z,8.18
2017-12-27T07:13:22.438Z,8.16
2017-12-27T07:15:52.924Z,8.05
2017-12-27T07:18:24.104Z,8.43
2017-12-27T07:20:54.379Z,8.08
2017-12-27T07:23:24.654Z,7.79
2017-12-27T07:26:01.194Z,8.00
2017-12-27T07:28:32.632Z,8.25
2017-12-27T07:31:05.098Z,8.29
2017-12-27T07:33:36.301Z,8.18
2017-12-27T07:36:07.403Z,8.06
2017-12-27T07:38:38.276Z,7.88
2017-12-27T07:41:08.907Z,7.60
2017-12-27T07:43:43.784Z,8.22
2017-12-27T07:46:18.244Z,8.02
2017-12-27T07:48:49.130Z,7.71
2017-12-27T07:51:19.988Z,7.83
2017-12-27T07:53:50.380Z,7.93
2017-12-27T07:56:23.401Z,8.06
2017-12-27T07:58:55.134Z,8.34
2017-12-27T08:01:28.458Z,8.30
2017-12-27T08:03:59.225Z,7.90
2017-12-27T08:06:32.924Z,8.18
2017-12-27T08:09:04.258Z,8.40
2017-12-27T08:11:34.480Z,8.42
2017-12-27T08:14:04.852Z,8.37
2017-12-27T08:16:39.059Z,8.44
2017-12-27T08:19:12.253Z,8.37
2017-12-27T08:21:43.785Z,8.31
2017-12-27T08:24:14.631Z,8.44
2017-12-27T08:26:44.865Z,8.42
2017-12-27T08:29:15.509Z,7.88
2017-12-27T08:31:47.233Z,8.24
2017-12-27T08:34:17.492Z,8.31
2017-12-27T08:36:47.950Z,8.34
2017-12-27T08:39:18.293Z,8.28
2017-12-27T08:41:49.288Z,8.00
2017-12-27T08:44:19.471Z,8.12
2017-12-27T08:46:50.426Z,8.37
2017-12-27T08:49:22.336Z,8.25
2017-12-27T08:51:53.370Z,7.62
2017-12-27T08:54:23.660Z,7.74
2017-12-27T08:56:54.595Z,7.68
2017-12-27T08:59:24.964Z,7.78
2017-12-27T09:01:57.503Z,7.71
2017-12-27T09:04:28.878Z,7.74
2017-12-27T09:06:59.172Z,7.68
2017-12-27T09:09:29.709Z,7.49
2017-12-27T09:11:59.899Z,7.56
2017-12-27T09:14:30.096Z,7.82
2017-12-27T09:17:01.501Z,8.21
2017-12-27T09:19:31.971Z,8.17
2017-12-27T09:22:02.795Z,7.51
2017-12-27T09:24:33.552Z,7.97
2017-12-27T09:27:03.843Z,8.20
2017-12-27T09:29:34.569Z,8.25
2017-12-27T09:32:05.519Z,8.45
2017-12-27T09:34:35.863Z,8.57
2017-12-27T09:37:07.404Z,8.33
2017-12-27T09:39:39.507Z,7.86
2017-12-27T09:42:10.154Z,7.78
2017-12-27T09:44:40.833Z,8.21
2017-12-27T09:47:11.114Z,8.37
2017-12-27T09:49:41.739Z,7.90
2017-12-27T09:52:12.693Z,8.25
2017-12-27T09:54:43.223Z,8.08
2017-12-27T09:57:13.982Z,8.43
2017-12-27T09:59:45.494Z,8.37
2017-12-27T10:02:17.450Z,8.30
2017-12-27T10:04:48.968Z,8.47
2017-12-27T10:07:20.452Z,8.21
2017-12-27T10:09:52.875Z,8.27
2017-12-27T10:12:26.699Z,7.97
2017-12-27T10:14:58.421Z,8.18
2017-12-27T10:17:28.946Z,8.05
2017-12-27T10:20:00.307Z,8.19
2017-12-27T10:22:31.255Z,8.19
2017-12-27T10:25:04.042Z,8.26
2017-12-27T10:27:34.673Z,8.37
2017-12-27T10:30:07.897Z,8.37
2017-12-27T10:32:40.338Z,8.28
2017-12-27T10:35:12.722Z,8.09
2017-12-27T10:37:44.169Z,8.33
2017-12-27T10:40:16.291Z,7.94
2017-12-27T10:42:47.835Z,8.51
2017-12-27T10:45:18.980Z,8.34
2017-12-27T10:47:50.748Z,8.40
2017-12-27T10:50:21.061Z,8.39
2017-12-27T10:52:51.644Z,8.46
2017-12-27T10:55:22.713Z,8.28
2017-12-27T10:57:52.992Z,8.68
2017-12-27T11:00:31.243Z,8.92
2017-12-27T11:03:01.668Z,9.04
2017-12-27T11:05:32.870Z,9.07
2017-12-27T11:08:04.836Z,9.27
2017-12-27T11:10:35.591Z,8.78
2017-12-27T11:13:05.916Z,8.21
2017-12-27T11:15:36.672Z,8.38
2017-12-27T11:18:07.815Z,8.65
2017-12-27T11:20:38.675Z,8.99
2017-12-27T11:26:04.127Z,8.44
2017-12-27T11:28:34.876Z,9.04
2017-12-27T11:31:06.193Z,9.30
2017-12-27T11:33:36.504Z,9.16
2017-12-27T11:36:07.208Z,9.35
2017-12-27T11:38:37.735Z,9.33
2017-12-27T11:41:08.519Z,8.54
2017-12-27T11:43:39.466Z,8.65
2017-12-27T11:46:10.424Z,8.67
2017-12-27T11:48:40.841Z,8.52
2017-12-27T11:51:18.900Z,8.60
2017-12-27T11:53:50.013Z,8.80
2017-12-27T11:56:20.265Z,8.45
2017-12-27T11:58:51.009Z,8.81
2017-12-27T12:01:22.069Z,8.61
2017-12-27T12:03:52.623Z,8.46
2017-12-27T12:06:23.127Z,8.65
2017-12-27T12:09:05.999Z,8.64
2017-12-27T12:11:36.580Z,8.71
2017-12-27T12:14:07.279Z,8.85
2017-12-27T12:16:37.920Z,9.27
2017-12-27T12:19:08.897Z,8.99
2017-12-27T12:21:39.926Z,8.87
2017-12-27T12:24:13.437Z,8.73
2017-12-27T12:26:45.213Z,9.17
2017-12-27T12:29:15.872Z,9.36
2017-12-27T12:31:46.660Z,8.96
2017-12-27T12:34:18.493Z,8.94
2017-12-27T12:37:14.150Z,8.91
2017-12-27T12:39:58.903Z,9.21
2017-12-27T12:42:31.156Z,8.77
2017-12-27T12:45:05.116Z,8.89
2017-12-27T12:47:37.701Z,9.04
2017-12-27T12:50:09.101Z,9.12
2017-12-27T12:52:40.234Z,8.90
2017-12-27T12:55:12.966Z,9.14
2017-12-27T12:57:44.119Z,9.20
2017-12-27T13:00:19.771Z,9.24
2017-12-27T13:02:51.699Z,9.20
2017-12-27T13:05:22.383Z,9.55
2017-12-27T13:07:53.316Z,9.20
2017-12-27T13:10:24.017Z,9.01
2017-12-27T13:12:57.193Z,9.15
2017-12-27T13:15:28.521Z,9.23
2017-12-27T13:17:59.780Z,9.44
2017-12-27T13:20:34.020Z,9.37
2017-12-27T13:23:04.353Z,9.33
2017-12-27T13:25:34.967Z,9.72
2017-12-27T13:28:05.783Z,9.91
2017-12-27T13:30:36.668Z,9.89
2017-12-27T13:33:07.310Z,9.36
2017-12-27T13:35:46.122Z,9.33
2017-12-27T13:38:16.995Z,9.24
2017-12-27T13:40:47.812Z,9.80
2017-12-27T13:43:18.414Z,9.86
2017-12-27T13:45:55.466Z,9.52
2017-12-27T13:48:26.402Z,9.29
2017-12-27T13:50:57.554Z,9.60
2017-12-27T13:53:27.913Z,9.82
2017-12-27T13:55:59.049Z,9.47
2017-12-27T13:58:30.378Z,9.54
2017-12-27T14:01:09.325Z,9.55
2017-12-27T14:03:41.411Z,9.26
2017-12-27T14:06:12.815Z,9.69
2017-12-27T14:08:45.368Z,9.88
2017-12-27T14:11:16.279Z,9.74
2017-12-27T14:13:48.816Z,9.89
2017-12-27T14:16:20.520Z,9.66
2017-12-27T14:18:51.344Z,9.89
2017-12-27T14:21:23.097Z,9.93
2017-12-27T14:23:55.211Z,10.24
2017-12-27T14:26:25.982Z,10.24
2017-12-27T14:28:57.309Z,10.14
2017-12-27T14:31:29.365Z,10.11
2017-12-27T14:34:00.668Z,10.10
2017-12-27T14:36:32.609Z,9.89
2017-12-27T14:39:03.667Z,10.08
2017-12-27T14:41:34.471Z,10.05
2017-12-27T14:44:07.712Z,9.92
2017-12-27T14:46:39.574Z,10.03
2017-12-27T14:49:11.718Z,9.87
2017-12-27T14:51:45.597Z,9.87
2017-12-27T14:54:19.835Z,9.45
2017-12-27T14:56:57.781Z,9.62
2017-12-27T14:59:29.745Z,9.86
2017-12-27T15:02:02.976Z,10.06
2017-12-27T15:04:35.563Z,9.96
2017-12-27T15:07:11.741Z,9.91
2017-12-27T15:09:44.439Z,9.93
2017-12-27T15:12:18.670Z,9.71
2017-12-27T15:14:52.333Z,10.20
2017-12-27T15:17:26.180Z,10.04
2017-12-27T15:20:05.658Z,9.82
2017-12-27T15:22:37.117Z,9.69
2017-12-27T15:25:08.339Z,9.74
2017-12-27T15:27:39.025Z,9.76
2017-12-27T15:30:09.979Z,9.83
2017-12-27T15:32:44.009Z,9.84
2017-12-27T15:35:14.562Z,9.58
2017-12-27T15:37:45.283Z,9.86
2017-12-27T15:40:18.057Z,9.92
2017-12-27T15:42:51.521Z,9.91
2017-12-27T15:45:23.841Z,9.99
2017-12-27T15:47:55.187Z,10.14
2017-12-27T15:50:26.301Z,10.19
2017-12-27T15:52:57.305Z,10.27
2017-12-27T15:55:28.630Z,10.35
2017-12-27T15:58:00.304Z,10.36
2017-12-27T16:00:34.417Z,10.32
2017-12-27T16:03:06.629Z,10.41
2017-12-27T16:05:39.165Z,10.43
2017-12-27T16:08:18.842Z,10.45
2017-12-27T16:10:51.387Z,10.36
2017-12-27T16:13:26.279Z,10.28
2017-12-27T16:16:04.256Z,10.29
2017-12-27T16:18:36.587Z,10.37
2017-12-27T16:21:08.758Z,10.33
2017-12-27T16:23:43.317Z,10.27
2017-12-27T16:26:16.901Z,10.25
2017-12-27T16:28:50.769Z,9.84
2017-12-27T16:31:25.845Z,9.70
2017-12-27T16:33:59.598Z,9.80
2017-12-27T16:36:39.073Z,9.95
2017-12-27T16:39:14.141Z,9.96
2017-12-27T16:41:48.744Z,9.98
2017-12-27T16:44:27.983Z,9.89
2017-12-27T16:47:06.053Z,9.68
2017-12-27T16:49:43.579Z,9.65
2017-12-27T16:52:24.421Z,9.94
2017-12-27T16:54:59.010Z,9.94
2017-12-27T16:58:03.740Z,10.00
2017-12-27T17:00:39.204Z,9.97
2017-12-27T17:03:14.219Z,10.13
2017-12-27T17:05:46.425Z,10.13
2017-12-27T17:08:22.436Z,10.30
2017-12-27T17:11:04.620Z,10.32
2017-12-27T17:13:37.557Z,10.17
2017-12-27T17:16:12.676Z,10.00
2017-12-27T17:18:45.755Z,9.76
2017-12-27T17:21:19.651Z,9.97
2017-12-27T17:23:53.682Z,9.81
2017-12-27T17:26:36.411Z,9.80
2017-12-27T17:29:11.106Z,9.64
2017-12-27T17:31:44.033Z,9.57
2017-12-27T17:34:37.173Z,9.84
2017-12-27T17:37:16.749Z,9.89
2017-12-27T17:39:57.508Z,10.10
2017-12-27T17:42:34.091Z,10.23
2017-12-27T17:45:09.606Z,10.22
2017-12-27T17:47:47.927Z,10.21
2017-12-27T17:50:21.879Z,10.00
2017-12-27T17:52:54.629Z,9.84
2017-12-27T17:55:29.563Z,9.66
2017-12-27T17:58:02.758Z,9.98
2017-12-27T18:00:37.125Z,10.06
2017-12-27T18:03:11.965Z,10.31
2017-12-27T18:05:55.581Z,10.43
2017-12-27T18:08:34.265Z,10.29
2017-12-27T18:13:47.763Z,10.32
2017-12-27T18:16:24.270Z,10.28
2017-12-27T18:18:58.022Z,10.30
2017-12-27T18:21:33.091Z,10.39
2017-12-27T18:24:20.472Z,10.21
2017-12-27T18:26:54.754Z,10.28
2017-12-27T18:29:31.080Z,10.22
2017-12-27T18:32:05.167Z,10.40
2017-12-27T18:34:39.930Z,10.55
2017-12-27T18:37:13.894Z,10.65
2017-12-27T18:39:48.457Z,10.56
2017-12-27T18:42:23.990Z,10.58
2017-12-27T18:44:59.345Z,10.70
2017-12-27T18:47:35.103Z,10.76
2017-12-27T18:50:10.109Z,10.72
2017-12-27T18:52:50.554Z,10.86
2017-12-27T18:55:25.120Z,10.86
2017-12-27T18:57:59.582Z,10.94
2017-12-27T19:00:34.728Z,10.98
2017-12-27T19:03:09.354Z,10.93
2017-12-27T19:05:46.576Z,10.61
2017-12-27T19:08:19.483Z,10.27
2017-12-27T19:10:54.055Z,10.10
2017-12-27T19:13:28.911Z,10.41
2017-12-27T19:16:03.593Z,10.50
2017-12-27T19:18:42.113Z,10.65
2017-12-27T19:21:20.938Z,10.69
2017-12-27T19:24:03.627Z,10.68
2017-12-27T19:26:37.955Z,10.57
2017-12-27T19:29:14.153Z,10.53
2017-12-27T19:31:47.915Z,10.44
2017-12-27T19:34:23.788Z,10.52
2017-12-27T19:37:00.267Z,10.58
2017-12-27T19:39:41.143Z,10.57
2017-12-27T19:42:13.977Z,10.47
2017-12-27T19:44:47.988Z,10.52
2017-12-27T19:47:22.825Z,10.58
2017-12-27T19:49:54.188Z,10.52
2017-12-27T19:52:26.219Z,10.54
2017-12-27T19:54:57.419Z,10.31
2017-12-27T19:57:35.656Z,9.84
2017-12-27T20:02:59.856Z,9.78
2017-12-27T20:05:37.923Z,9.65
2017-12-27T20:08:08.718Z,9.67
2017-12-27T20:10:39.578Z,9.46
2017-12-27T20:13:11.948Z,9.42
2017-12-27T20:15:46.068Z,9.39
2017-12-27T20:18:17.432Z,9.40
2017-12-27T20:20:49.684Z,9.19
2017-12-27T20:26:15.682Z,9.03
2017-12-27T20:28:47.785Z,9.08
2017-12-27T20:31:18.826Z,8.89
2017-12-27T20:33:53.769Z,8.70
2017-12-27T20:36:29.352Z,8.72
2017-12-27T20:39:03.601Z,8.47
2017-12-27T20:44:20.690Z,8.46
2017-12-27T20:46:57.410Z,8.32
2017-12-27T20:49:35.141Z,8.35
2017-12-27T20:52:07.772Z,8.46
2017-12-27T20:54:42.407Z,8.57
2017-12-27T20:57:16.215Z,8.59
2017-12-27T20:59:51.381Z,8.60
2017-12-27T21:02:26.093Z,8.67
2017-12-27T21:05:03.991Z,8.84
2017-12-27T21:07:37.169Z,8.74
2017-12-27T21:10:13.063Z,8.82
2017-12-27T21:12:48.263Z,8.85
2017-12-27T21:15:20.437Z,8.80
2017-12-27T21:17:57.995Z,8.82
2017-12-27T21:20:30.542Z,8.90
2017-12-27T21:23:02.307Z,8.70
2017-12-27T21:25:34.165Z,8.85
2017-12-27T21:28:06.294Z,8.66
2017-12-27T21:30:37.670Z,8.39
2017-12-27T21:33:09.345Z,8.36
2017-12-27T21:35:40.685Z,8.36
2017-12-27T21:38:11.275Z,8.35
2017-12-27T21:40:43.536Z,8.41
2017-12-27T21:43:14.380Z,8.36
2017-12-27T21:45:45.630Z,8.37
2017-12-27T21:48:21.149Z,8.35
2017-12-27T21:50:53.208Z,8.28
2017-12-27T21:53:46.262Z,8.37
2017-12-27T21:56:23.063Z,8.23
2017-12-27T21:59:00.105Z,8.18
2017-12-27T22:01:50.092Z,8.30
2017-12-27T22:04:24.492Z,8.37
2017-12-27T22:06:56.462Z,8.45
2017-12-27T22:09:29.833Z,8.53
2017-12-27T22:12:02.554Z,8.49
2017-12-27T22:14:34.546Z,8.68
2017-12-27T22:17:07.022Z,8.70
2017-12-27T22:19:38.440Z,8.69
2017-12-27T22:22:09.900Z,8.73
2017-12-27T22:24:42.329Z,8.85
2017-12-27T22:27:13.457Z,8.85
2017-12-27T22:29:50.191Z,8.72
2017-12-27T22:32:23.134Z,8.80
2017-12-27T22:35:02.505Z,8.65
2017-12-27T22:37:36.439Z,8.68
2017-12-27T22:40:23.351Z,8.62
2017-12-27T22:42:59.843Z,8.52
2017-12-27T22:45:39.475Z,8.50
2017-12-27T22:48:13.213Z,8.61
2017-12-27T22:50:48.480Z,8.53
2017-12-27T22:53:21.877Z,8.40
2017-12-27T22:55:54.241Z,8.37
2017-12-27T22:58:25.220Z,8.30
2017-12-27T23:00:58.696Z,8.15
2017-12-27T23:03:33.520Z,8.16
2017-12-27T23:06:05.245Z,8.05
2017-12-27T23:08:38.109Z,7.97
2017-12-27T23:11:10.424Z,7.93
2017-12-27T23:13:43.644Z,7.86
2017-12-27T23:16:20.480Z,7.87
2017-12-27T23:18:51.041Z,7.73
2017-12-27T23:21:24.647Z,7.68
2017-12-27T23:24:02.707Z,7.66
2017-12-27T23:26:34.506Z,7.65
2017-12-27T23:29:06.633Z,7.76
2017-12-27T23:31:39.027Z,7.60
2017-12-27T23:34:10.066Z,7.52
2017-12-27T23:36:41.518Z,7.65
2017-12-27T23:39:12.363Z,7.41
2017-12-27T23:41:46.500Z,7.41
2017-12-27T23:44:17.919Z,7.51
2017-12-27T23:46:53.029Z,7.64
2017-12-27T23:49:25.543Z,7.49
2017-12-27T23:51:59.490Z,7.42
2017-12-27T23:54:32.767Z,7.30
2017-12-27T23:57:04.451Z,7.36
2017-12-27T23:59:40.344Z,7.52
